createdAt,value
2018-06-17T05:34:24.260Z,28
2018-06-17T05:35:14.627Z,28.4
2018-06-17T05:36:04.667Z,28.8
2018-06-17T05:36:54.460Z,29.1
2018-06-17T05:37:44.784Z,29.4
2018-06-17T05:38:34.593Z,29.8
2018-06-17T05:39:24.922Z,30.1
2018-06-17T05:40:15.005Z,30.4
2018-06-17T05:41:05.038Z,30.8
2018-06-17T05:41:55.162Z,30.9
2018-06-17T05:42:45.240Z,31.1
2018-06-17T05:43:35.286Z,31.3
2018-06-17T05:44:25.133Z,31.4
2018-06-17T05:45:15.375Z,31.5
2018-06-17T05:46:05.156Z,31.6
2018-06-17T05:46:55.550Z,31.8
2018-06-17T05:47:45.561Z,31.8
2018-06-17T05:48:35.608Z,31.9
2018-06-17T05:49:25.673Z,31.9
2018-06-17T05:50:15.742Z,31.9
2018-06-17T05:51:05.535Z,31.9
2018-06-17T05:51:55.861Z,32
2018-06-17T05:52:45.931Z,32.1
2018-06-17T05:53:36.017Z,32.2
2018-06-17T05:54:26.100Z,32.3
2018-06-17T05:55:16.115Z,32.4
2018-06-17T05:56:06.183Z,32.6
2018-06-17T05:56:56.262Z,32.8
2018-06-17T05:57:46.331Z,32.9
2018-06-17T05:58:36.476Z,33.2
2018-06-17T05:59:26.211Z,33.4
2018-06-17T06:00:16.519Z,33.6
2018-06-17T06:01:06.589Z,33.9
2018-06-17T06:01:56.622Z,34.3
2018-06-17T06:02:46.716Z,34.8
2018-06-17T06:03:36.485Z,35.3
2018-06-17T06:04:26.565Z,35.8
2018-06-17T06:05:16.867Z,36.3
2018-06-17T06:06:06.993Z,36.9
2018-06-17T06:06:57.010Z,37.3
2018-06-17T06:07:47.084Z,37.7
2018-06-17T06:08:37.156Z,38.1
2018-06-17T06:09:27.195Z,38.5
2018-06-17T06:10:17.462Z,39
2018-06-17T06:11:07.342Z,39.6
2018-06-17T06:11:56.853Z,40.1
2018-06-17T06:12:47.443Z,40.4
2018-06-17T06:13:36.983Z,40.6
2018-06-17T06:14:27.593Z,40.6
2018-06-17T06:15:17.364Z,40.6
2018-06-17T06:16:07.469Z,40.5
2018-06-17T06:16:57.567Z,40.4
2018-06-17T06:17:47.565Z,40.3
2018-06-17T06:18:37.345Z,40.2
2018-06-17T06:19:27.985Z,40.1
2018-06-17T06:20:18.025Z,39.9
2018-06-17T06:21:08.082Z,39.8
2018-06-17T06:21:57.883Z,39.6
2018-06-17T06:22:48.220Z,39.4
2018-06-17T06:23:38.272Z,39.3
2018-06-17T06:24:27.819Z,39.2
2018-06-17T06:25:18.142Z,39.1
2018-06-17T06:26:08.454Z,38.9
2018-06-17T06:26:57.967Z,38.9
2018-06-17T06:27:48.635Z,38.9
2018-06-17T06:28:38.090Z,38.9
2018-06-17T06:29:28.464Z,38.9
2018-06-17T06:30:18.776Z,39
2018-06-17T06:31:08.842Z,39.1
2018-06-17T06:31:58.924Z,39.3
2018-06-17T06:32:48.984Z,39.6
2018-06-17T06:33:39.036Z,39.9
2018-06-17T06:34:29.097Z,40.4
2018-06-17T06:35:19.151Z,40.8
2018-06-17T06:36:09.226Z,41
2018-06-17T06:36:58.746Z,41.3
2018-06-17T06:37:49.349Z,41.9
2018-06-17T06:38:39.134Z,42.7
2018-06-17T06:39:29.188Z,43.5
2018-06-17T06:40:19.265Z,44.3
2018-06-17T06:41:09.607Z,44.8
2018-06-17T06:41:59.662Z,45.3
2018-06-17T06:42:49.718Z,45.8
2018-06-17T06:43:39.784Z,46.1
2018-06-17T06:44:29.576Z,46.4
2018-06-17T06:45:19.651Z,46.6
2018-06-17T06:46:09.978Z,46.7
2018-06-17T06:47:00.052Z,46.7
2018-06-17T06:47:49.828Z,46.8
2018-06-17T06:48:40.178Z,46.8
2018-06-17T06:49:29.945Z,46.8
2018-06-17T06:50:20.301Z,46.7
2018-06-17T06:51:10.022Z,46.6
2018-06-17T06:51:59.599Z,46.6
2018-06-17T06:52:50.245Z,46.6
2018-06-17T06:53:40.589Z,46.5
2018-06-17T06:54:30.622Z,46.4
2018-06-17T06:55:20.700Z,46.4
2018-06-17T06:56:10.771Z,46.4
2018-06-17T06:57:00.866Z,46.5
2018-06-17T06:57:50.908Z,46.6
2018-06-17T06:58:40.953Z,46.7
2018-06-17T06:59:31.000Z,46.8
2018-06-17T07:00:20.785Z,47
2018-06-17T07:01:10.556Z,47.4
2018-06-17T07:02:00.916Z,48.1
2018-06-17T07:02:51.262Z,48.9
2018-06-17T07:03:41.327Z,49.9
2018-06-17T07:04:31.370Z,50.9
2018-06-17T07:05:21.433Z,51.9
2018-06-17T07:06:11.238Z,52.9
2018-06-17T07:07:01.582Z,53.8
2018-06-17T07:07:51.593Z,54.8
2018-06-17T07:08:41.699Z,55.6
2018-06-17T07:09:31.762Z,56.6
2018-06-17T07:10:21.822Z,57.4
2018-06-17T07:11:11.597Z,58.3
2018-06-17T07:12:01.963Z,59.1
2018-06-17T07:12:52.004Z,60.2
2018-06-17T07:13:41.497Z,61.9
2018-06-17T07:14:32.130Z,61.6
2018-06-17T07:15:22.207Z,59.9
2018-06-17T07:16:12.042Z,56.2
2018-06-17T07:17:02.331Z,51.9
2018-06-17T07:17:52.115Z,49.4
2018-06-17T07:18:42.438Z,48.1
2018-06-17T07:19:32.516Z,47.6
2018-06-17T07:20:22.564Z,47.6
2018-06-17T07:21:12.386Z,47.9
2018-06-17T07:22:02.466Z,48.6
2018-06-17T07:22:52.807Z,49.6
2018-06-17T07:23:42.823Z,50.5
2018-06-17T07:24:32.877Z,51.5
2018-06-17T07:25:22.955Z,52.6
2018-06-17T07:26:12.447Z,53.4
2018-06-17T07:27:02.801Z,54.3
2018-06-17T07:27:52.637Z,55.1
2018-06-17T07:28:42.921Z,55.7
2018-06-17T07:29:32.999Z,56.2
2018-06-17T07:30:23.325Z,56.5
2018-06-17T07:31:13.388Z,56.8
2018-06-17T07:32:03.456Z,57.3
2018-06-17T07:32:53.542Z,58.1
2018-06-17T07:33:43.397Z,59
2018-06-17T07:34:33.388Z,60.1
2018-06-17T07:35:23.162Z,62
2018-06-17T07:36:13.805Z,62.1
2018-06-17T07:37:03.880Z,61.3
2018-06-17T07:37:53.925Z,59.9
2018-06-17T07:38:43.978Z,58.2
2018-06-17T07:39:33.457Z,56.7
2018-06-17T07:40:24.134Z,56.1
2018-06-17T07:41:13.886Z,55.8
2018-06-17T07:42:03.963Z,56
2018-06-17T07:42:54.308Z,56.6
2018-06-17T07:43:44.486Z,57.6
2018-06-17T07:44:34.467Z,59
2018-06-17T07:45:23.915Z,60.9
2018-06-17T07:46:14.260Z,61.6
2018-06-17T07:47:04.621Z,61.8
2018-06-17T07:47:54.407Z,61.4
2018-06-17T07:48:44.450Z,60
2018-06-17T07:49:34.838Z,58.2
2018-06-17T07:50:24.575Z,57
2018-06-17T07:51:14.651Z,56.8
2018-06-17T07:52:04.987Z,56.9
2018-06-17T07:52:55.040Z,57.4
2018-06-17T07:53:44.862Z,57.9
2018-06-17T07:54:35.161Z,58.2
2018-06-17T07:55:25.249Z,58.3
2018-06-17T07:56:15.024Z,58
2018-06-17T07:57:05.420Z,57.5
2018-06-17T07:57:55.161Z,57
2018-06-17T07:58:45.529Z,56.9
2018-06-17T07:59:35.571Z,57.4
2018-06-17T08:00:25.610Z,58
2018-06-17T08:01:15.683Z,58.6
2018-06-17T08:02:05.479Z,59.1
2018-06-17T08:02:55.528Z,59.4
2018-06-17T08:03:45.875Z,59.6
2018-06-17T08:04:35.736Z,59.7
2018-06-17T08:05:25.998Z,59.9
2018-06-17T08:06:16.078Z,60.3
2018-06-17T08:07:06.118Z,60.6
2018-06-17T08:07:56.190Z,60.9
2018-06-17T08:08:46.266Z,61.1
2018-06-17T08:09:36.321Z,61.3
2018-06-17T08:10:26.382Z,61.3
2018-06-17T08:11:16.460Z,61.4
2018-06-17T08:12:06.249Z,61.4
2018-06-17T08:12:56.572Z,61.6
2018-06-17T08:13:46.632Z,61.8
2018-06-17T08:14:36.727Z,61.9
2018-06-17T08:15:26.770Z,62.2
2018-06-17T08:16:16.833Z,62.4
2018-06-17T08:17:06.917Z,62.6
2018-06-17T08:17:56.956Z,62.8
2018-06-17T08:18:47.028Z,63
2018-06-17T08:19:37.082Z,63.1
2018-06-17T08:20:27.157Z,63.3
2018-06-17T08:21:17.214Z,63.4
2018-06-17T08:22:07.307Z,63.5
2018-06-17T08:22:57.077Z,63.6
2018-06-17T08:23:47.420Z,63.8
2018-06-17T08:24:37.461Z,63.9
2018-06-17T08:25:26.999Z,64.1
2018-06-17T08:26:17.599Z,64.2
2018-06-17T08:27:07.652Z,64.4
2018-06-17T08:27:57.722Z,64.5
2018-06-17T08:28:47.534Z,64.7
2018-06-17T08:29:37.865Z,64.9
2018-06-17T08:30:27.855Z,65.2
2018-06-17T08:31:17.708Z,65.4
2018-06-17T08:32:07.500Z,65.7
2018-06-17T08:32:58.109Z,65.9
2018-06-17T08:33:48.185Z,65.9
2018-06-17T08:34:37.965Z,66.1
2018-06-17T08:35:28.303Z,66.1
2018-06-17T08:36:18.416Z,66.2
2018-06-17T08:37:08.200Z,66.2
2018-06-17T08:37:58.531Z,66.1
2018-06-17T08:38:48.270Z,66.1
2018-06-17T08:39:38.065Z,65.9
2018-06-17T08:40:28.198Z,65.7
2018-06-17T08:41:18.749Z,65.4
2018-06-17T08:42:08.559Z,65.2
2018-06-17T08:42:58.602Z,65
2018-06-17T08:43:48.455Z,64.8
2018-06-17T08:44:38.998Z,64.6
2018-06-17T08:45:28.814Z,64.6
2018-06-17T08:46:19.154Z,64.5
2018-06-17T08:47:09.207Z,64.5
2018-06-17T08:47:59.284Z,64.5
2018-06-17T08:48:49.335Z,64.6
2018-06-17T08:49:39.391Z,64.7
2018-06-17T08:50:29.465Z,64.8
2018-06-17T08:51:19.509Z,64.9
2018-06-17T08:52:09.315Z,65.1
2018-06-17T08:52:59.648Z,65.2
2018-06-17T08:53:49.706Z,65.3
2018-06-17T08:54:39.494Z,65.4
2018-06-17T08:55:29.832Z,65.6
2018-06-17T08:56:19.920Z,65.7
2018-06-17T08:57:09.974Z,65.9
2018-06-17T08:58:00.053Z,65.9
2018-06-17T08:58:49.549Z,66.1
2018-06-17T08:59:39.628Z,66.1
2018-06-17T09:00:29.387Z,66.1
2018-06-17T09:01:20.000Z,66.1
2018-06-17T09:02:10.373Z,66.1
2018-06-17T09:03:00.405Z,66
2018-06-17T09:03:50.538Z,65.9
2018-06-17T09:04:40.543Z,65.8
2018-06-17T09:05:30.643Z,65.7
2018-06-17T09:06:20.389Z,65.7
2018-06-17T09:07:10.731Z,65.6
2018-06-17T09:08:00.819Z,65.6
2018-06-17T09:08:50.869Z,65.6
2018-06-17T09:09:40.948Z,65.6
2018-06-17T09:10:30.711Z,65.5
2018-06-17T09:11:20.789Z,65.4
2018-06-17T09:12:11.194Z,65.3
2018-06-17T09:13:00.919Z,65.3
2018-06-17T09:13:51.239Z,65.3
2018-06-17T09:14:41.313Z,65.4
2018-06-17T09:15:31.369Z,65.4
2018-06-17T09:16:21.174Z,65.6
2018-06-17T09:17:11.513Z,65.7
2018-06-17T09:18:01.563Z,65.5
2018-06-17T09:18:51.631Z,64.9
2018-06-17T09:19:41.736Z,64.4
2018-06-17T09:20:31.586Z,63.8
2018-06-17T09:21:21.563Z,63.1
2018-06-17T09:22:11.619Z,62.8
2018-06-17T09:23:01.955Z,62.9
2018-06-17T09:23:52.011Z,63.4
2018-06-17T09:24:41.811Z,63.8
2018-06-17T09:25:32.135Z,64
2018-06-17T09:26:22.199Z,64.2
2018-06-17T09:27:11.981Z,64.4
2018-06-17T09:28:02.363Z,64.6
2018-06-17T09:28:52.166Z,64.9
2018-06-17T09:29:42.472Z,65.2
2018-06-17T09:30:32.531Z,65.5
2018-06-17T09:31:22.624Z,65.8
2018-06-17T09:32:13.086Z,66.1
2018-06-17T09:33:02.731Z,66.3
2018-06-17T09:33:52.824Z,66.4
2018-06-17T09:34:42.860Z,66.6
2018-06-17T09:35:32.933Z,66.8
2018-06-17T09:36:22.991Z,66.9
2018-06-17T09:37:13.038Z,67.2
2018-06-17T09:38:02.927Z,67.4
2018-06-17T09:38:52.723Z,67.7
2018-06-17T09:39:43.239Z,67.8
2018-06-17T09:40:33.295Z,68
2018-06-17T09:41:23.079Z,68.1
2018-06-17T09:42:13.422Z,68
2018-06-17T09:43:03.477Z,67.5
2018-06-17T09:43:52.993Z,67.2
2018-06-17T09:44:43.620Z,67.3
2018-06-17T09:45:33.128Z,67.2
2018-06-17T09:46:23.797Z,66.7
2018-06-17T09:47:13.815Z,65.9
2018-06-17T09:48:03.327Z,65.6
2018-06-17T09:48:53.951Z,65.8
2018-06-17T09:49:44.010Z,66.3
2018-06-17T09:50:34.051Z,66.8
2018-06-17T09:51:24.150Z,67.2
2018-06-17T09:52:14.213Z,67.4
2018-06-17T09:53:03.981Z,67.3
2018-06-17T09:53:54.055Z,66.5
2018-06-17T09:54:44.395Z,65.3
2018-06-17T09:55:34.182Z,64.3
2018-06-17T09:56:24.274Z,64.1
2018-06-17T09:57:14.324Z,64.6
2018-06-17T09:58:04.643Z,65.4
2018-06-17T09:58:54.727Z,66
2018-06-17T09:59:44.787Z,66.4
2018-06-17T10:00:34.859Z,66.4
2018-06-17T10:01:24.964Z,66.4
2018-06-17T10:02:14.982Z,66.3
2018-06-17T10:03:05.036Z,66.5
2018-06-17T10:03:54.819Z,66.9
2018-06-17T10:04:45.162Z,67.4
2018-06-17T10:05:35.237Z,67.9
2018-06-17T10:06:25.059Z,68.2
2018-06-17T10:07:15.366Z,68.4
2018-06-17T10:08:05.154Z,68.6
2018-06-17T10:08:55.352Z,68.6
2018-06-17T10:09:45.277Z,68.8
2018-06-17T10:10:35.612Z,69.1
2018-06-17T10:11:25.688Z,69.4
2018-06-17T10:12:15.733Z,69.5
2018-06-17T10:13:05.815Z,69.6
2018-06-17T10:13:55.863Z,69.8
2018-06-17T10:14:45.938Z,70
2018-06-17T10:15:35.707Z,70.3
2018-06-17T10:16:26.056Z,70.1
2018-06-17T10:17:16.132Z,69.4
2018-06-17T10:18:06.195Z,69.1
2018-06-17T10:18:55.717Z,69.3
2018-06-17T10:19:46.332Z,69.6
2018-06-17T10:20:36.427Z,69.9
2018-06-17T10:21:26.446Z,70.2
2018-06-17T10:22:16.507Z,70.3
2018-06-17T10:23:06.586Z,69.6
2018-06-17T10:23:56.635Z,68.8
2018-06-17T10:24:46.717Z,67.9
2018-06-17T10:25:36.239Z,67.2
2018-06-17T10:26:26.850Z,66.6
2018-06-17T10:27:16.893Z,66.3
2018-06-17T10:28:06.962Z,66.1
2018-06-17T10:28:57.020Z,65.6
2018-06-17T10:29:47.102Z,65
2018-06-17T10:30:37.186Z,64.4
2018-06-17T10:31:27.220Z,64.2
2018-06-17T10:32:17.055Z,63.9
2018-06-17T10:33:07.348Z,63.4
2018-06-17T10:33:57.427Z,62.9
2018-06-17T10:34:47.478Z,62.3
2018-06-17T10:35:37.271Z,61.7
2018-06-17T10:36:27.623Z,60.9
2018-06-17T10:37:17.420Z,59.8
2018-06-17T10:38:08.002Z,58.8
2018-06-17T10:38:57.557Z,58
2018-06-17T10:39:47.595Z,57.3
2018-06-17T10:40:37.929Z,56.8
2018-06-17T10:41:28.008Z,56.3
2018-06-17T10:42:18.047Z,55.8
2018-06-17T10:43:08.112Z,55.4
2018-06-17T10:43:57.921Z,54.9
2018-06-17T10:44:48.259Z,54.5
2018-06-17T10:45:38.312Z,54.1
2018-06-17T10:46:28.367Z,53.7
2018-06-17T10:47:18.010Z,53.3
2018-06-17T10:48:07.933Z,52.9
2018-06-17T10:48:58.900Z,52.6
2018-06-17T10:49:48.409Z,52.3
2018-06-17T10:51:28.791Z,51.6
2018-06-17T10:52:18.567Z,51.3
2018-06-17T10:53:08.902Z,50.9
2018-06-17T10:53:58.951Z,50.5
2018-06-17T10:54:48.741Z,50.1
2018-06-17T10:55:39.504Z,49.7
2018-06-17T10:56:29.172Z,49.3
2018-06-17T10:57:18.949Z,48.9
2018-06-17T10:58:09.291Z,48.5
2018-06-17T10:58:58.794Z,48.1
2018-06-17T10:59:49.396Z,47.8
2018-06-17T11:00:39.449Z,47.4
2018-06-17T11:01:29.287Z,47.1
2018-06-17T11:02:19.328Z,46.8
2018-06-17T11:03:09.664Z,46.4
2018-06-17T11:03:59.725Z,46.1
2018-06-17T11:04:49.789Z,45.8
2018-06-17T11:05:40.442Z,45.5
2018-06-17T11:06:29.646Z,45.3
2018-06-17T11:07:19.976Z,45.1
2018-06-17T11:08:10.055Z,44.9
2018-06-17T11:09:00.143Z,44.8
2018-06-17T11:09:49.911Z,44.6
2018-06-17T11:10:40.251Z,44.4
2018-06-17T11:11:30.013Z,44.3
2018-06-17T11:12:20.354Z,44.2
2018-06-17T11:13:10.586Z,44.1
2018-06-17T11:14:00.208Z,43.9
2018-06-17T11:14:50.552Z,43.8
2018-06-17T11:15:40.638Z,43.8
2018-06-17T11:16:30.130Z,43.7
2018-06-17T11:17:20.757Z,43.6
2018-06-17T11:18:10.844Z,43.6
2018-06-17T11:19:00.602Z,43.5
2018-06-17T11:19:50.686Z,43.4
2018-06-17T11:20:41.035Z,43.4
2018-06-17T11:21:31.059Z,43.4
2018-06-17T11:22:21.168Z,43.4
2018-06-17T11:23:10.943Z,43.4
2018-06-17T11:24:01.309Z,43.4
2018-06-17T11:24:51.064Z,43.5
2018-06-17T11:25:41.389Z,43.5
2018-06-17T11:26:31.288Z,43.5
2018-06-17T11:27:21.534Z,43.5
2018-06-17T11:28:11.293Z,43.5
2018-06-17T11:29:00.819Z,43.5
2018-06-17T11:29:51.158Z,43.5
2018-06-17T11:30:41.784Z,43.5
2018-06-17T11:31:31.845Z,43.5
2018-06-17T11:32:21.930Z,43.5
2018-06-17T11:33:11.973Z,43.5
2018-06-17T11:34:01.794Z,43.4
2018-06-17T11:34:51.816Z,43.4
2018-06-17T11:35:42.198Z,43.4
2018-06-17T11:36:32.225Z,43.4
2018-06-17T11:37:22.301Z,43.4
2018-06-17T11:38:12.069Z,43.4
2018-06-17T11:39:03.194Z,43.4
2018-06-17T11:39:52.492Z,43.4
2018-06-17T11:40:42.544Z,43.4
2018-06-17T11:41:32.344Z,43.3
2018-06-17T11:42:22.459Z,43.3
2018-06-17T11:43:12.740Z,43.3
2018-06-17T11:44:02.838Z,43.3
2018-06-17T11:44:52.887Z,43.3
2018-06-17T11:45:42.943Z,43.3
2018-06-17T11:46:32.728Z,43.3
2018-06-17T11:47:23.054Z,43.3
2018-06-17T11:48:13.124Z,43.3
2018-06-17T11:49:03.193Z,43.3
2018-06-17T11:49:52.962Z,43.3
2018-06-17T11:50:43.312Z,43.3
2018-06-17T11:51:33.081Z,43.3
2018-06-17T11:52:23.190Z,43.4
2018-06-17T11:53:13.235Z,43.4
2018-06-17T11:54:03.308Z,43.6
2018-06-17T11:54:53.668Z,43.6
2018-06-17T11:55:43.445Z,43.8
2018-06-17T11:56:33.475Z,43.8
2018-06-17T11:57:23.823Z,43.9
2018-06-17T11:58:13.403Z,44
2018-06-17T11:59:03.497Z,44.1
2018-06-17T11:59:54.020Z,44.2
2018-06-17T12:00:44.085Z,44.3
2018-06-17T12:01:34.167Z,44.4
2018-06-17T12:02:24.214Z,44.6
2018-06-17T12:03:14.276Z,44.7
2018-06-17T12:04:04.059Z,44.8
2018-06-17T12:04:54.110Z,44.9
2018-06-17T12:05:44.462Z,45.1
2018-06-17T12:06:34.527Z,45.2
2018-06-17T12:07:24.599Z,45.3
2018-06-17T12:08:14.674Z,45.4
2018-06-17T12:09:04.733Z,45.4
2018-06-17T12:09:54.800Z,45.5
2018-06-17T12:10:44.842Z,45.6
2018-06-17T12:11:34.910Z,45.7
2018-06-17T12:12:24.977Z,45.9
2018-06-17T12:13:15.037Z,46.2
2018-06-17T12:14:05.101Z,46.5
2018-06-17T12:14:54.913Z,46.8
2018-06-17T12:15:45.247Z,47
2018-06-17T12:16:34.761Z,47.2
2018-06-17T12:17:25.356Z,47.3
2018-06-17T12:18:15.444Z,47.5
2018-06-17T12:19:05.488Z,47.5
2018-06-17T12:19:55.333Z,47.6
2018-06-17T12:20:45.618Z,47.6
2018-06-17T12:21:35.672Z,47.6
2018-06-17T12:22:25.767Z,47.5
2018-06-17T12:23:15.827Z,47.5
2018-06-17T12:24:05.393Z,47.5
2018-06-17T12:24:55.479Z,47.5
2018-06-17T12:25:46.058Z,47.6
2018-06-17T12:26:35.795Z,47.8
2018-06-17T12:27:25.660Z,48.1
2018-06-17T12:28:15.939Z,48.6
2018-06-17T12:29:06.247Z,49.4
2018-06-17T12:29:56.056Z,50.4
2018-06-17T12:30:46.414Z,51.6
2018-06-17T12:31:36.443Z,52.8
2018-06-17T12:32:26.247Z,53.9
2018-06-17T12:33:16.312Z,54.9
